Flight Track Log - Related Links

Times and Time Zones

All times are in EDT time to prevent confusion due to time zone crossing. See the ACA831 flight status page for this flight to view local times or setup timezone preferences in your user account.

Time Position Orientation Groundspeed Altitude Reporting Facility
EDT Latitude Longitude Course Direction KTS MPH feet Rate Location/Type
Wed 06:21:52 AM 46.2280 6.1300 289° West  Level FlightAware ADS-B
Wed 06:25:06 AM 46.2280 6.1290 270° West 93 Level FlightAware ADS-B
Wed 06:27:00 AM 46.3394 5.8524 300° West  Level Estimated
Wed 06:40:00 AM 46.3334 5.8300 300° West  Level Estimated
Wed 06:42:00 AM 46.3431 5.8047 300° West  Level Estimated
Wed 06:44:51 AM 46.2260 6.1110 54° Northeast 105 121  Level FlightAware ADS-B
Wed 06:45:33 AM 46.2490 6.1430 44° Northeast 173 199 2,200 2,903 Climbing FlightAware ADS-B
Wed 06:45:53 AM 46.2600 6.1610 49° Northeast 184 212 3,000 2,550 Climbing FlightAware ADS-B
Wed 06:46:13 AM 46.2730 6.1790 44° Northeast 183 211 3,900 2,550 Climbing FlightAware ADS-B
Wed 06:46:33 AM 46.2850 6.1960 44° Northeast 191 220 4,700 2,063 Climbing FlightAware ADS-B
Wed 06:46:45 AM 46.2930 6.2080 46° Northeast 209 241 5,000 1,500 Climbing FlightAware ADS-B
Wed 06:47:01 AM 46.3040 6.2240 45° Northeast 229 264 5,400 1,950 Climbing FlightAware ADS-B
Wed 06:47:25 AM 46.3240 6.2500 42° Northeast 247 284 6,300 2,143 Climbing FlightAware ADS-B
Wed 06:47:29 AM 46.3280 6.2520 19° North 252 290 6,400 2,000 Climbing FlightAware ADS-B
Wed 06:47:37 AM 46.3370 6.2550 13° North 261 300 6,700 2,684 Climbing FlightAware ADS-B
Wed 06:48:07 AM 46.3710 6.2320 335° Northwest 284 327 8,100 2,760 Climbing FlightAware ADS-B
Wed 06:48:27 AM 46.3860 6.2020 306° West 288 331 9,000 2,786 Climbing FlightAware ADS-B
Wed 06:49:03 AM 46.4200 6.1500 313° West 306 352 10,700 2,206 Climbing FlightAware ADS-B
Wed 06:49:35 AM 46.4510 6.0970 310° West 343 395 11,500 1,688 Climbing FlightAware ADS-B
Wed 06:50:07 AM 46.4840 6.0370 309° West 374 430 12,500 2,430 Climbing FlightAware ADS-B
Wed 06:50:54 AM 46.5360 5.9430 309° West 384 442 14,700 2,819 Climbing FlightAware ADS-B
Wed 06:51:30 AM 46.5760 5.8710 309° West 390 449 16,400 2,735 Climbing FlightAware ADS-B
Wed 06:52:02 AM 46.6140 5.8050 310° West 398 458 17,800 2,559 Climbing FlightAware ADS-B
Wed 06:52:38 AM 46.6540 5.7330 309° West 402 463 19,300 2,417 Climbing FlightAware ADS-B
Wed 06:53:14 AM 46.6970 5.6560 309° West 411 473 20,700 2,250 Climbing FlightAware ADS-B
Wed 06:53:50 AM 46.7440 5.5850 314° West 418 481 22,000 2,182 Climbing FlightAware ADS-B
Wed 06:54:20 AM 46.7860 5.5260 316° Northwest 420 483 23,100 2,273 Climbing FlightAware ADS-B
Wed 06:54:56 AM 46.8380 5.4520 316° Northwest 425 489 24,500 2,108 Climbing FlightAware ADS-B
Wed 06:55:34 AM 46.8920 5.3730 315° West 433 498 25,700 1,886 Climbing FlightAware ADS-B
Wed 06:56:06 AM 46.9380 5.3060 315° West 438 504 26,700 1,818 Climbing FlightAware ADS-B
Wed 06:56:40 AM 46.9860 5.2350 315° West 443 510 27,700 1,917 Climbing FlightAware ADS-B
Wed 06:57:18 AM 47.0410 5.1570 316° Northwest 441 507 29,000 2,083 Climbing FlightAware ADS-B
Wed 06:57:52 AM 47.0890 5.0840 314° West 436 502 30,200 1,859 Climbing FlightAware ADS-B
Wed 06:58:29 AM 47.1320 5.0190 314° West 434 499 31,200 1,521 Climbing FlightAware ADS-B
Wed 06:59:03 AM 47.1860 4.9350 313° West 433 498 32,000 716 Climbing FlightAware ADS-B
Wed 06:59:36 AM 47.2340 4.8620 314° West 434 499 32,000  Level FlightAware ADS-B
Wed 07:00:15 AM 47.2880 4.7790 314° West 433 498 32,000  Level FlightAware ADS-B
Wed 07:00:55 AM 47.3350 4.7080 314° West 432 497 32,000  Level FlightAware ADS-B
Wed 07:01:28 AM 47.3880 4.6250 313° West 430 495 32,000  Level FlightAware ADS-B
Wed 07:02:04 AM 47.4350 4.5530 314° West 428 493 32,000  Level FlightAware ADS-B
Wed 07:02:39 AM 47.4830 4.4780 313° West 426 490 32,000  Level FlightAware ADS-B
Wed 07:03:11 AM 47.5270 4.4100 314° West 424 488 32,000  Level FlightAware ADS-B
Wed 07:03:49 AM 47.5770 4.3310 313° West 423 487 32,000  Level FlightAware ADS-B
Wed 07:04:26 AM 47.6290 4.2500 314° West 422 486 32,000  Level FlightAware ADS-B
Wed 07:05:01 AM 47.6760 4.1760 313° West 422 486 32,000  Level FlightAware ADS-B
Wed 07:05:35 AM 47.7150 4.1140 313° West 422 486 32,000  Level FlightAware ADS-B
Wed 07:06:10 AM 47.7630 4.0380 313° West 422 486 32,000  Level FlightAware ADS-B
Wed 07:06:47 AM 47.8170 3.9530 313° West 421 484 32,000  Level FlightAware ADS-B
Wed 07:07:26 AM 47.8680 3.8720 313° West 422 486 32,000  Level FlightAware ADS-B
Wed 07:08:02 AM 47.9170 3.7950 314° West 423 487 32,000  Level FlightAware ADS-B
Wed 07:08:38 AM 47.9660 3.7160 313° West 424 488 32,000  Level FlightAware ADS-B
Wed 07:09:11 AM 48.0090 3.6480 313° West 424 488 32,000  Level FlightAware ADS-B
Wed 07:09:47 AM 48.0580 3.5680 313° West 425 489 32,000  Level FlightAware ADS-B
Wed 07:10:24 AM 48.1070 3.4900 313° West 426 490 32,000  Level FlightAware ADS-B
Wed 07:11:00 AM 48.1530 3.4160 313° West 427 491 32,000  Level FlightAware ADS-B
Wed 07:11:33 AM 48.1990 3.3420 313° West 426 490 32,000  Level FlightAware ADS-B
Wed 07:12:08 AM 48.2460 3.2650 313° West 426 490 32,000  Level FlightAware ADS-B
Wed 07:12:44 AM 48.2950 3.1860 313° West 426 490 32,000  Level FlightAware ADS-B
Wed 07:13:15 AM 48.3360 3.1180 312° West 426 490 32,000  Level FlightAware ADS-B
Wed 07:13:49 AM 48.3800 3.0460 313° West 426 490 32,000  Level FlightAware ADS-B
Wed 07:14:26 AM 48.4230 2.9560 306° West 422 486 32,000  Level FlightAware ADS-B
Wed 07:15:02 AM 48.4480 2.8550 290° West 420 483 32,000  Level FlightAware ADS-B
Wed 07:15:38 AM 48.4670 2.7590 287° West 420 483 32,000  Level FlightAware ADS-B
Wed 07:16:16 AM 48.4860 2.6570 286° West 420 483 32,000  Level FlightAware ADS-B
Wed 07:16:51 AM 48.5040 2.5590 286° West 420 483 32,000  Level FlightAware ADS-B
Wed 07:17:31 AM 48.5260 2.4420 286° West 420 483 32,000  Level FlightAware ADS-B
Wed 07:18:01 AM 48.5420 2.3540 285° West 421 484 32,000  Level FlightAware ADS-B
Wed 07:18:38 AM 48.5610 2.2500 285° West 421 484 32,000  Level FlightAware ADS-B
Wed 07:19:13 AM 48.5874 2.1370 285° West 1 1 32,000  Level FlightAware UK
Wed 07:19:13 AM 48.5790 2.1520 285° West 420 483 32,000  Level FlightAware ADS-B
Wed 07:19:46 AM 48.5960 2.0570 285° West 420 483 32,000  Level FlightAware ADS-B
Wed 07:20:25 AM 48.6246 1.9328 285° West 468 539 32,000  Level FlightAware UK
Wed 07:20:34 AM 48.6180 1.9400 285° West 227 261 32,000  Level FlightAware ADS-B
Wed 07:21:18 AM 48.6430 1.8020 285° West 420 483 32,000  Level FlightAware ADS-B
Wed 07:21:19 AM 48.6521 1.7799 285° West 468 539 32,000  Level FlightAware UK
Wed 07:21:55 AM 48.6703 1.6774 285° West 468 539 32,000  Level FlightAware UK
Wed 07:21:56 AM 48.6640 1.6910 285° West 419 482 32,000  Level FlightAware ADS-B
Wed 07:22:26 AM 48.6790 1.6050 285° West 419 482 32,000  Level FlightAware ADS-B
Wed 07:23:06 AM 48.6990 1.4950 285° West 418 481 32,000  Level FlightAware ADS-B
Wed 07:23:43 AM 48.7257 1.3714 285° West 470 541 32,000  Level FlightAware UK
Wed 07:23:44 AM 48.7180 1.3890 285° West 418 481 32,000  Level FlightAware ADS-B
Wed 07:24:21 AM 48.7370 1.2810 285° West 418 481 32,000  Level FlightAware ADS-B
Wed 07:24:25 AM 48.7470 1.2527 285° West 470 541 32,000  Level FlightAware UK
Wed 07:24:51 AM 48.7510 1.2000 285° West 417 480 32,000  Level FlightAware ADS-B
Wed 07:25:34 AM 48.7730 1.0770 285° West 416 479 32,000  Level FlightAware ADS-B
Wed 07:26:08 AM 48.7900 0.9830 285° West 415 478 32,000  Level FlightAware ADS-B
Wed 07:26:48 AM 48.8183 0.8467 285° West 466 536 32,000  Level FlightAware UK
Wed 07:26:50 AM 48.8110 0.8630 285° West 414 476 32,000  Level FlightAware ADS-B
Wed 07:27:24 AM 48.8359 0.7453 285° West 466 536 32,000  Level FlightAware UK
Wed 07:27:25 AM 48.8270 0.7660 285° West 414 476 32,000  Level FlightAware ADS-B
Wed 07:27:57 AM 48.8430 0.6770 285° West 414 476 32,000  Level FlightAware ADS-B
Wed 07:28:42 AM 48.8640 0.5540 285° West 414 476 32,000  Level FlightAware ADS-B
Wed 07:29:17 AM 48.8800 0.4580 284° West 411 473 32,000  Level FlightAware ADS-B
Wed 07:29:57 AM 48.9000 0.3410 285° West 412 474 32,000  Level FlightAware ADS-B
Wed 07:30:42 AM 48.9311 0.1925 285° West 466 536 32,000  Level FlightAware UK
Wed 07:30:47 AM 48.9220 0.2070 285° West 412 474 32,000  Level FlightAware ADS-B
Wed 07:31:21 AM 48.9390 0.1090 285° West 412 474 32,000  Level FlightAware ADS-B
Wed 07:31:56 AM 48.9560 0.0080 284° West 412 474 32,000  Level FlightAware ADS-B
Wed 07:32:32 AM 48.9710 -0.0880 283° West 413 475 32,000  Level FlightAware ADS-B
Wed 07:33:03 AM 48.9870 -0.1820 285° West 413 475 32,000  Level FlightAware ADS-B
Wed 07:33:35 AM 49.0020 -0.2740 284° West 414 476 32,000  Level FlightAware ADS-B
Wed 07:34:23 AM 49.0240 -0.4090 284° West 414 476 32,000  Level FlightAware ADS-B
Wed 07:34:58 AM 49.0370 -0.4930 283° West 414 476 32,000  Level FlightAware ADS-B
Wed 07:35:33 AM 49.0550 -0.6000 284° West 415 478 32,000  Level FlightAware ADS-B
Wed 07:36:13 AM 49.0730 -0.7170 283° West 415 478 32,000  Level FlightAware ADS-B
Wed 07:36:49 AM 49.0890 -0.8190 284° West 415 478 32,000  Level FlightAware ADS-B
Wed 07:37:41 AM 49.1232 -1.0001 284° West 464 534 32,000  Level FlightAware UK
Wed 07:37:41 AM 49.1120 -0.9650 284° West 415 478 32,000  Level FlightAware ADS-B
Wed 07:38:16 AM 49.1280 -1.0680 283° West 416 479 32,000  Level FlightAware ADS-B
Wed 07:38:50 AM 49.1430 -1.1600 284° West 417 480 32,000  Level FlightAware ADS-B
Wed 07:39:29 AM 49.1708 -1.3091 284° West 464 534 32,000  Level FlightAware UK
Wed 07:39:31 AM 49.1620 -1.2830 284° West 417 480 32,000  Level FlightAware ADS-B
Wed 07:40:01 AM 49.1750 -1.3720 283° West 418 481 32,000  Level FlightAware ADS-B
Wed 07:40:35 AM 49.1995 -1.4987 283° West 466 536 32,000  Level FlightAware UK
Wed 07:40:38 AM 49.1920 -1.4770 283° West 418 481 32,000  Level FlightAware ADS-B
Wed 07:41:11 AM 49.2155 -1.6025 283° West 466 536 32,000  Level FlightAware UK
Wed 07:41:17 AM 49.2090 -1.5890 283° West 418 481 32,000  Level FlightAware ADS-B
Wed 07:41:46 AM 49.2200 -1.6620 283° West 417 480 32,000  Level FlightAware ADS-B
Wed 07:42:22 AM 49.2469 -1.8101 283° West 466 536 32,000  Level FlightAware UK
Wed 07:42:29 AM 49.2380 -1.7840 283° West 418 481 32,000  Level FlightAware ADS-B
Wed 07:43:01 AM 49.2530 -1.8870 283° West 420 483 32,000  Level FlightAware ADS-B
Wed 07:43:37 AM 49.2680 -1.9860 283° West 420 483 32,000  Level FlightAware ADS-B
Wed 07:44:11 AM 49.2820 -2.0850 282° West 419 482 32,000  Level FlightAware ADS-B
Wed 07:45:00 AM 49.3040 -2.2320 283° West 419 482 32,000  Level FlightAware ADS-B
Wed 07:45:38 AM 49.3190 -2.3380 283° West 420 483 32,000  Level FlightAware ADS-B
Wed 07:45:40 AM 49.3310 -2.3867 283° West 468 539 32,000  Level FlightAware UK
Wed 07:46:19 AM 49.3370 -2.4620 283° West 420 483 32,000  Level FlightAware ADS-B
Wed 07:46:53 AM 49.3510 -2.5620 282° West 420 483 32,000  Level FlightAware ADS-B
Wed 07:47:25 AM 49.3640 -2.6520 283° West 421 484 32,000  Level FlightAware ADS-B
Wed 07:48:02 AM 49.3800 -2.7620 283° West 421 484 32,000  Level FlightAware ADS-B
Wed 07:48:37 AM 49.3930 -2.8610 281° West 421 484 32,000  Level FlightAware ADS-B
Wed 07:49:10 AM 49.4160 -2.9971 281° West 466 536 32,000  Level FlightAware UK
Wed 07:49:20 AM 49.4110 -2.9870 281° West 422 486 32,000  Level FlightAware ADS-B
Wed 07:49:56 AM 49.4260 -3.0950 282° West 421 484 32,000  Level FlightAware ADS-B
Wed 07:50:32 AM 49.4400 -3.2020 281° West 420 483 32,000  Level FlightAware ADS-B
Wed 07:51:04 AM 49.4530 -3.2940 282° West 420 483 32,000  Level FlightAware ADS-B
Wed 07:51:42 AM 49.4670 -3.4020 281° West 420 483 32,000  Level FlightAware ADS-B
Wed 07:52:12 AM 49.4790 -3.4880 281° West 420 483 32,000  Level FlightAware ADS-B
Wed 07:52:15 AM 49.4890 -3.5401 281° West 464 534 32,000  Level FlightAware UK
Wed 07:52:50 AM 49.4930 -3.5970 281° West 420 483 32,000  Level FlightAware ADS-B
Wed 07:53:26 AM 49.5080 -3.7090 282° West 420 483 32,000  Level FlightAware ADS-B
Wed 07:53:42 AM 49.5150 -3.7520 284° West 423 487 32,000  Level FlightAware ADS-B
Wed 07:54:15 AM 49.5520 -3.8828 284° West 466 536 32,000  Level FlightAware UK
Wed 07:54:22 AM 49.5480 -3.8590 284° West 425 489 32,000  Level FlightAware ADS-B
Wed 07:54:56 AM 49.5750 -3.9540 294° West 424 488 32,000  Level FlightAware ADS-B
Wed 07:55:31 AM 49.6010 -4.0520 292° West 421 484 32,000  Level FlightAware ADS-B
Wed 07:56:06 AM 49.6260 -4.1520 291° West 420 483 32,000  Level FlightAware ADS-B
Wed 07:56:41 AM 49.6510 -4.2480 292° West 420 483 32,000  Level FlightAware ADS-B
Wed 07:57:16 AM 49.6770 -4.3440 293° West 421 484 32,000  Level FlightAware ADS-B
Wed 07:57:56 AM 49.7080 -4.4560 293° West 423 487 32,000  Level FlightAware ADS-B
Wed 07:58:31 AM 49.7360 -4.5550 294° West 425 489 32,000  Level FlightAware ADS-B
Wed 07:59:07 AM 49.7640 -4.6600 292° West 426 490 32,000  Level FlightAware ADS-B
Wed 07:59:39 AM 49.7953 -4.7852 292° West 464 534 32,000  Level FlightAware UK
Wed 07:59:45 AM 49.7930 -4.7650 292° West 426 490 32,000  Level FlightAware ADS-B
Wed 08:00:17 AM 49.8170 -4.8530 293° West 426 490 32,000  Level FlightAware ADS-B
Wed 08:00:51 AM 49.8430 -4.9510 292° West 427 491 32,000  Level FlightAware ADS-B
Wed 08:01:21 AM 49.8720 -5.0702 292° West 464 534 32,000  Level FlightAware UK
Wed 08:01:29 AM 49.8710 -5.0540 292° West 426 490 32,000  Level FlightAware ADS-B
Wed 08:02:01 AM 49.8960 -5.1470 293° West 427 491 32,000  Level FlightAware ADS-B
Wed 08:02:33 AM 49.9261 -5.2725 293° West 464 534 32,000  Level FlightAware UK
Wed 08:02:39 AM 49.9250 -5.2560 293° West 426 490 32,000  Level FlightAware ADS-B
Wed 08:03:11 AM 49.9490 -5.3460 293° West 428 493 32,000  Level FlightAware ADS-B
Wed 08:03:49 AM 49.9770 -5.4510 293° West 428 493 32,000  Level FlightAware ADS-B
Wed 08:04:25 AM 50.0040 -5.5530 292° West 428 493 32,000  Level FlightAware ADS-B
Wed 08:04:58 AM 50.0280 -5.6460 292° West 429 494 32,000  Level FlightAware ADS-B
Wed 08:05:35 AM 50.0570 -5.7550 293° West 429 494 32,000  Level FlightAware ADS-B
Wed 08:06:09 AM 50.0866 -5.8841 293° West 464 534 32,000  Level FlightAware UK
Wed 08:06:11 AM 50.0830 -5.8580 293° West 430 495 32,000  Level FlightAware ADS-B
Wed 08:06:43 AM 50.1070 -5.9500 293° West 429 494 32,000  Level FlightAware ADS-B
Wed 08:06:45 AM 50.1128 -5.9861 293° West 464 534 32,000  Level FlightAware UK
Wed 08:07:15 AM 50.1348 -6.0716 293° West 466 536 32,000  Level FlightAware UK
Wed 08:07:19 AM 50.1330 -6.0520 293° West 430 495 32,000  Level FlightAware ADS-B
Wed 08:07:55 AM 50.1600 -6.1550 292° West 430 495 32,000  Level FlightAware ADS-B
Wed 08:08:27 AM 50.1830 -6.2460 292° West 430 495 32,000  Level FlightAware ADS-B
Wed 08:09:05 AM 50.2110 -6.3580 291° West 430 495 32,000  Level FlightAware ADS-B
Wed 08:09:37 AM 50.2340 -6.4490 292° West 429 494 32,000  Level FlightAware ADS-B
Wed 08:10:13 AM 50.2600 -6.5540 291° West 430 495 32,000  Level FlightAware ADS-B
Wed 08:10:49 AM 50.2870 -6.6600 292° West 430 495 32,000  Level FlightAware ADS-B
Wed 08:11:21 AM 50.3133 -6.7759 292° West 466 536 32,000  Level FlightAware UK
Wed 08:11:26 AM 50.3140 -6.7670 292° West 429 494 32,000  Level FlightAware ADS-B
Wed 08:11:59 AM 50.3370 -6.8600 291° West 429 494 32,000 91 Level FlightAware ADS-B
Wed 08:12:32 AM 50.3590 -6.9520 291° West 429 494 32,100 706 Climbing FlightAware ADS-B
Wed 08:13:07 AM 50.3850 -7.0580 291° West 433 498 32,800 1,014 Climbing FlightAware ADS-B
Wed 08:13:43 AM 50.4110 -7.1620 291° West 437 503 33,300 973 Climbing FlightAware ADS-B
Wed 08:14:21 AM 50.4380 -7.2740 291° West 437 503 34,000 1,029 Climbing FlightAware ADS-B
Wed 08:14:53 AM 50.4600 -7.3660 291° West 436 502 34,500 857 Climbing FlightAware ADS-B
Wed 08:14:56 AM 50.4652 -7.4013 291° West 468 539 34,500 727 Level FlightAware UK
Wed 08:15:26 AM 50.4862 -7.4890 291° West 466 536 34,900 968 Climbing FlightAware UK
Wed 08:15:27 AM 50.4850 -7.4710 291° West 434 499 35,000 154 Climbing FlightAware ADS-B
Wed 08:16:05 AM 50.5120 -7.5840 291° West 434 499 35,000  Level FlightAware ADS-B
Wed 08:16:37 AM 50.5340 -7.6770 290° West 430 495 35,000  Level FlightAware ADS-B
Wed 08:17:13 AM 50.5590 -7.7820 291° West 427 491 35,000  Level FlightAware ADS-B
Wed 08:17:51 AM 50.5840 -7.8870 291° West 426 490 35,000  Level FlightAware ADS-B
Wed 08:17:56 AM 50.5947 -7.9251 291° West 458 527 35,000  Level FlightAware UK
Wed 08:18:26 AM 50.6162 -8.0114 291° West 456 525 35,000  Level FlightAware UK
Wed 08:18:40 AM 50.6170 -8.0290 291° West 424 488 35,000  Level FlightAware ADS-B
Wed 08:19:13 AM 50.6380 -8.1180 290° West 423 487 35,000  Level FlightAware ADS-B
Wed 08:19:47 AM 50.6630 -8.2250 290° West 423 487 35,000  Level FlightAware ADS-B
Wed 08:20:28 AM 50.6900 -8.3410 290° West 423 487 35,000  Level FlightAware ADS-B
Wed 08:21:02 AM 50.7208 -8.4573 290° West 454 522 35,000  Level FlightAware UK
Wed 08:21:08 AM 50.7160 -8.4580 290° West 423 487 35,000  Level FlightAware ADS-B
Wed 08:21:48 AM 50.7420 -8.5700 290° West 423 487 35,000  Level FlightAware ADS-B
Wed 08:22:23 AM 50.7620 -8.6610 289° West 420 483 35,000  Level FlightAware ADS-B
Wed 08:23:02 AM 50.7983 -8.8025 289° West 456 525 35,000  Level FlightAware UK
Wed 08:23:05 AM 50.7940 -8.8000 289° West 426 490 35,000  Level FlightAware ADS-B
Wed 08:23:43 AM 50.8180 -8.9080 289° West 424 488 35,000  Level FlightAware ADS-B
Wed 08:24:18 AM 50.8410 -9.0090 290° West 429 494 35,000  Level FlightAware ADS-B
Wed 08:24:51 AM 50.8640 -9.1140 289° West 430 495 35,000  Level FlightAware ADS-B
Wed 08:25:30 AM 50.8850 -9.2120 289° West 430 495 35,000  Level FlightAware ADS-B
Wed 08:26:05 AM 50.9120 -9.3340 289° West 436 502 35,000  Level FlightAware ADS-B
Wed 08:26:44 AM 50.9370 -9.4440 290° West 437 503 35,000  Level FlightAware ADS-B
Wed 08:27:20 AM 50.9550 -9.5330 288° West 434 499 35,000  Level FlightAware ADS-B
Wed 08:27:58 AM 50.9840 -9.6610 290° West 438 504 35,000  Level FlightAware ADS-B
Wed 08:28:33 AM 51.0080 -9.7760 288° West 439 505 35,000  Level FlightAware ADS-B
Wed 08:29:06 AM 51.0300 -9.8750 289° West 441 507 35,000  Level FlightAware ADS-B
Wed 08:29:43 AM 51.0550 -9.9950 288° West 443 510 35,000  Level FlightAware ADS-B
Wed 08:30:23 AM 51.0790 -10.1090 289° West 441 507 35,000  Level FlightAware ADS-B
Wed 08:30:53 AM 51.0970 -10.1940 289° West 443 510 35,000  Level FlightAware ADS-B
Wed 08:31:33 AM 51.1250 -10.3280 288° West 444 511 35,000  Level FlightAware ADS-B
Wed 08:32:09 AM 51.1500 -10.4470 289° West 448 516 35,000  Level FlightAware ADS-B
Wed 08:32:48 AM 51.1720 -10.5530 288° West 446 513 35,000  Level FlightAware ADS-B
Wed 08:33:39 AM 51.2070 -10.7230 288° West 484 557 35,000  Level FlightAware ADS-B
Wed 08:34:36 AM 51.2390 -10.8890 287° West 446 513 35,000  Level FlightAware ADS-B
Wed 08:35:20 AM 51.2680 -11.0280 288° West 446 513 35,000  Level FlightAware ADS-B
Wed 08:35:23 AM 51.2260 -10.8130 107° East 723 832 35,000  Level FlightAware ADS-B
Wed 08:38:00 AM 51.3174 -11.2799 288° West  Level Estimated
Wed 08:39:00 AM 51.3518 -11.4588 287° West  Level Estimated
Wed 08:40:00 AM 51.3860 -11.6380 287° West  Level Estimated
Wed 08:41:00 AM 51.4199 -11.8174 287° West  Level Estimated
Wed 08:42:00 AM 51.4535 -11.9972 287° West  Level Estimated
Wed 08:43:00 AM 51.4869 -12.1771 287° West  Level Estimated
Wed 08:44:00 AM 51.5200 -12.3574 286° West  Level Estimated
Wed 08:45:00 AM 51.5527 -12.5379 286° West  Level Estimated
Wed 08:46:00 AM 51.5853 -12.7186 286° West  Level Estimated
Wed 08:47:00 AM 51.6175 -12.8996 286° West  Level Estimated
Wed 08:48:00 AM 51.6495 -13.0809 286° West  Level Estimated
Wed 08:49:00 AM 51.6811 -13.2625 286° West  Level Estimated
Wed 08:50:00 AM 51.7125 -13.4442 286° West  Level Estimated
Wed 08:51:00 AM 51.7437 -13.6263 286° West  Level Estimated
Wed 08:52:00 AM 51.7745 -13.8086 285° West  Level Estimated
Wed 08:53:00 AM 51.8050 -13.9911 285° West  Level Estimated
Wed 08:54:00 AM 51.8353 -14.1739 285° West  Level Estimated
Wed 08:55:00 AM 51.8653 -14.3569 285° West  Level Estimated
Wed 08:56:00 AM 51.8950 -14.5402 285° West  Level Estimated
Wed 08:57:00 AM 51.9244 -14.7237 285° West  Level Estimated
Wed 08:58:00 AM 51.9536 -14.9074 284° West  Level Estimated
Wed 08:59:00 AM 51.9824 -15.0914 284° West  Level Estimated
Wed 09:00:00 AM 52.0109 -15.2752 284° West  Level Estimated
Wed 09:01:00 AM 52.0391 -15.4593 284° West  Level Estimated
Wed 09:02:00 AM 52.0670 -15.6436 284° West  Level Estimated
Wed 09:03:00 AM 52.0947 -15.8281 284° West  Level Estimated
Wed 09:04:00 AM 52.1220 -16.0128 284° West  Level Estimated
Wed 09:05:00 AM 52.1491 -16.1978 283° West  Level Estimated
Wed 09:06:00 AM 52.1759 -16.3830 283° West  Level Estimated
Wed 09:07:00 AM 52.2023 -16.5684 283° West  Level Estimated
Wed 09:08:00 AM 52.2285 -16.7540 283° West  Level Estimated
Wed 09:09:00 AM 52.2544 -16.9399 283° West  Level Estimated
Wed 09:10:00 AM 52.2803 -17.1280 283° West  Level Estimated
Wed 09:11:00 AM 52.3059 -17.3164 283° West  Level Estimated
Wed 09:12:00 AM 52.3312 -17.5050 282° West  Level Estimated
Wed 09:13:00 AM 52.3562 -17.6938 282° West  Level Estimated
Wed 09:14:00 AM 52.3809 -17.8829 282° West  Level Estimated
Wed 09:15:00 AM 52.4053 -18.0721 282° West  Level Estimated
Wed 09:16:00 AM 52.4294 -18.2616 282° West  Level Estimated
Wed 09:17:00 AM 52.4531 -18.4512 282° West  Level Estimated
Wed 09:18:00 AM 52.4766 -18.6411 282° West  Level Estimated
Wed 09:19:00 AM 52.4998 -18.8311 281° West  Level Estimated
Wed 09:20:00 AM 52.5227 -19.0214 281° West  Level Estimated
Wed 09:21:00 AM 52.5452 -19.2118 281° West  Level Estimated
Wed 09:22:00 AM 52.5675 -19.4025 281° West  Level Estimated
Wed 09:23:00 AM 52.5894 -19.5933 281° West  Level Estimated
Wed 09:24:00 AM 52.6111 -19.7844 281° West  Level Estimated
Wed 09:25:00 AM 52.6324 -19.9756 280° West  Level Estimated
Wed 09:25:49 AM 53.0000 -20.0000 274° West 424 488 35,000  Level ETMS Enhanced Traffic Management System
Wed 09:26:00 AM 52.6534 -20.1670 280° West  Level Estimated
Wed 09:27:00 AM 52.6742 -20.3586 280° West  Level Estimated
Wed 09:28:00 AM 52.6946 -20.5503 280° West  Level Estimated
Wed 09:29:00 AM 52.7147 -20.7423 280° West  Level Estimated
Wed 09:30:00 AM 52.7345 -20.9344 280° West  Level Estimated
Wed 09:31:00 AM 52.7539 -21.1267 280° West  Level Estimated
Wed 09:32:00 AM 53.0610 -21.7617 273° West 424 488 35,000  Level FlightAware Transoceanic
Wed 09:33:00 AM 53.0661 -21.9577 272° West 424 488 35,000  Level FlightAware Transoceanic
Wed 09:34:00 AM 53.0710 -22.1537 272° West 424 488 35,000  Level FlightAware Transoceanic
Wed 09:35:00 AM 53.0755 -22.3498 272° West 424 488 35,000  Level FlightAware Transoceanic
Wed 09:36:00 AM 53.0797 -22.5460 272° West 424 488 35,000  Level FlightAware Transoceanic
Wed 09:37:00 AM 53.0836 -22.7422 272° West 424 488 35,000  Level FlightAware Transoceanic
Wed 09:38:00 AM 53.0871 -22.9384 272° West 424 488 35,000  Level FlightAware Transoceanic
Wed 09:39:00 AM 53.0904 -23.1346 271° West 424 488 35,000  Level FlightAware Transoceanic
Wed 09:40:00 AM 53.0933 -23.3309 271° West 424 488 35,000  Level FlightAware Transoceanic
Wed 09:41:00 AM 53.0959 -23.5272 271° West 424 488 35,000  Level FlightAware Transoceanic
Wed 09:42:00 AM 53.0981 -23.7236 271° West 424 488 35,000  Level FlightAware Transoceanic
Wed 09:43:00 AM 53.1001 -23.9199 271° West 424 488 35,000  Level FlightAware Transoceanic
Wed 09:44:00 AM 53.1017 -24.1163 271° West 424 488 35,000  Level FlightAware Transoceanic
Wed 09:45:00 AM 53.1030 -24.3126 271° West 424 488 35,000  Level FlightAware Transoceanic
Wed 09:46:00 AM 53.1039 -24.5090 270° West 424 488 35,000  Level FlightAware Transoceanic
Wed 09:47:00 AM 53.1046 -24.7054 270° West 424 488 35,000  Level FlightAware Transoceanic
Wed 09:48:00 AM 53.1049 -24.9018 270° West 424 488 35,000  Level FlightAware Transoceanic
Wed 09:49:00 AM 53.1049 -25.0982 270° West 424 488 35,000  Level FlightAware Transoceanic
Wed 09:50:00 AM 53.1046 -25.2946 270° West 424 488 35,000  Level FlightAware Transoceanic
Wed 09:51:00 AM 53.1039 -25.4910 270° West 424 488 35,000  Level FlightAware Transoceanic
Wed 09:52:00 AM 53.1030 -25.6874 269° West 424 488 35,000  Level FlightAware Transoceanic
Wed 09:53:00 AM 53.1017 -25.8837 269° West 424 488 35,000  Level FlightAware Transoceanic
Wed 09:54:00 AM 53.1001 -26.0801 269° West 424 488 35,000  Level FlightAware Transoceanic
Wed 09:55:00 AM 53.0981 -26.2764 269° West 424 488 35,000  Level FlightAware Transoceanic
Wed 09:56:00 AM 53.0959 -26.4728 269° West 424 488 35,000  Level FlightAware Transoceanic
Wed 09:57:00 AM 53.0933 -26.6691 269° West 424 488 35,000  Level FlightAware Transoceanic
Wed 09:58:00 AM 53.0904 -26.8654 269° West 424 488 35,000  Level FlightAware Transoceanic
Wed 09:59:00 AM 53.0871 -27.0616 268° West 424 488 35,000  Level FlightAware Transoceanic
Wed 10:00:00 AM 53.0836 -27.2578 268° West 424 488 35,000  Level FlightAware Transoceanic
Wed 10:01:00 AM 53.0797 -27.4540 268° West 424 488 35,000  Level FlightAware Transoceanic
Wed 10:02:00 AM 53.0755 -27.6502 268° West 424 488 35,000  Level FlightAware Transoceanic
Wed 10:03:00 AM 53.0710 -27.8463 268° West 424 488 35,000  Level FlightAware Transoceanic
Wed 10:04:00 AM 53.0661 -28.0423 268° West 424 488 35,000  Level FlightAware Transoceanic
Wed 10:05:00 AM 53.0610 -28.2383 267° West 424 488 35,000  Level FlightAware Transoceanic
Wed 10:06:00 AM 53.0555 -28.4343 267° West 424 488 35,000  Level FlightAware Transoceanic
Wed 10:07:00 AM 53.0497 -28.6302 267° West 424 488 35,000  Level FlightAware Transoceanic
Wed 10:08:00 AM 53.0435 -28.8261 267° West 424 488 35,000  Level FlightAware Transoceanic
Wed 10:09:00 AM 53.0371 -29.0219 267° West 424 488 35,000  Level FlightAware Transoceanic
Wed 10:10:00 AM 53.0303 -29.2177 267° West 424 488 35,000  Level FlightAware Transoceanic
Wed 10:11:00 AM 53.0232 -29.4133 266° West 424 488 35,000  Level FlightAware Transoceanic
Wed 10:12:00 AM 53.0158 -29.6090 266° West 424 488 35,000  Level FlightAware Transoceanic
Wed 10:13:00 AM 53.0081 -29.8045 266° West 424 488 35,000  Level FlightAware Transoceanic
Wed 10:14:00 AM 53.0000 -30.0002 266° West  Level FlightAware Approximate
Wed 10:15:00 AM 53.0057 -30.1961 274° West  Level Estimated
Wed 10:16:00 AM 53.0000 -30.0000 274° West 424 488 35,000  Level ETMS Enhanced Traffic Management System
Wed 10:16:00 AM 53.0131 -30.3919 274° West  Level FlightAware Approximate
Wed 10:17:00 AM 53.0201 -30.5877 273° West  Level FlightAware Approximate
Wed 10:18:00 AM 53.0268 -30.7836 273° West  Level FlightAware Approximate
Wed 10:19:00 AM 53.0331 -30.9782 273° West  Level FlightAware Approximate
Wed 10:20:00 AM 53.0391 -31.1728 273° West  Level FlightAware Approximate
Wed 10:21:00 AM 53.0448 -31.3675 273° West  Level FlightAware Approximate
Wed 10:22:00 AM 53.0497 -31.3698 273° West 424 488 35,000  Level FlightAware Transoceanic
Wed 10:23:00 AM 53.0555 -31.5657 273° West 424 488 35,000  Level FlightAware Transoceanic
Wed 10:24:00 AM 53.0610 -31.7617 273° West 424 488 35,000  Level FlightAware Transoceanic
Wed 10:25:00 AM 53.0661 -31.9577 272° West 424 488 35,000  Level FlightAware Transoceanic
Wed 10:26:00 AM 53.0710 -32.1537 272° West 424 488 35,000  Level FlightAware Transoceanic
Wed 10:27:00 AM 53.0755 -32.3498 272° West 424 488 35,000  Level FlightAware Transoceanic
Wed 10:28:00 AM 53.0797 -32.5460 272° West 424 488 35,000  Level FlightAware Transoceanic
Wed 10:29:00 AM 53.0836 -32.7422 272° West 424 488 35,000  Level FlightAware Transoceanic
Wed 10:30:00 AM 53.0871 -32.9384 272° West 424 488 35,000  Level FlightAware Transoceanic
Wed 10:31:00 AM 53.0904 -33.1347 271° West 424 488 35,000  Level FlightAware Transoceanic
Wed 10:32:00 AM 53.0933 -33.3309 271° West 424 488 35,000  Level FlightAware Transoceanic
Wed 10:33:00 AM 53.0959 -33.5272 271° West 424 488 35,000  Level FlightAware Transoceanic
Wed 10:34:00 AM 53.0981 -33.7235 271° West 424 488 35,000  Level FlightAware Transoceanic
Wed 10:35:00 AM 53.1001 -33.9199 271° West 424 488 35,000  Level FlightAware Transoceanic
Wed 10:36:00 AM 53.1017 -34.1163 271° West 424 488 35,000  Level FlightAware Transoceanic
Wed 10:37:00 AM 53.1030 -34.3126 271° West 424 488 35,000  Level FlightAware Transoceanic
Wed 10:38:00 AM 53.1039 -34.5090 270° West 424 488 35,000  Level FlightAware Transoceanic
Wed 10:39:00 AM 53.1046 -34.7054 270° West 424 488 35,000  Level FlightAware Transoceanic
Wed 10:40:00 AM 53.1049 -34.9018 270° West 424 488 35,000  Level FlightAware Transoceanic
Wed 10:41:00 AM 53.1049 -35.0982 270° West 424 488 35,000  Level FlightAware Transoceanic
Wed 10:42:00 AM 53.1046 -35.2946 270° West 424 488 35,000  Level FlightAware Transoceanic
Wed 10:43:00 AM 53.1039 -35.4910 270° West 424 488 35,000  Level FlightAware Transoceanic
Wed 10:44:00 AM 53.1030 -35.6874 269° West 424 488 35,000  Level FlightAware Transoceanic
Wed 10:45:00 AM 53.1017 -35.8837 269° West 424 488 35,000  Level FlightAware Transoceanic
Wed 10:46:00 AM 53.1001 -36.0801 269° West 424 488 35,000  Level FlightAware Transoceanic
Wed 10:47:00 AM 53.0981 -36.2765 269° West 424 488 35,000  Level FlightAware Transoceanic
Wed 10:48:00 AM 53.0959 -36.4728 269° West 424 488 35,000  Level FlightAware Transoceanic
Wed 10:49:00 AM 53.0933 -36.6691 269° West 424 488 35,000  Level FlightAware Transoceanic
Wed 10:50:00 AM 53.0904 -36.8653 269° West 424 488 35,000  Level FlightAware Transoceanic
Wed 10:51:00 AM 53.0871 -37.0616 268° West 424 488 35,000  Level FlightAware Transoceanic
Wed 10:52:00 AM 53.0836 -37.2578 268° West 424 488 35,000  Level FlightAware Transoceanic
Wed 10:53:00 AM 53.0797 -37.4540 268° West 424 488 35,000  Level FlightAware Transoceanic
Wed 10:54:00 AM 53.0755 -37.6502 268° West 424 488 35,000  Level FlightAware Transoceanic
Wed 10:55:00 AM 53.0710 -37.8463 268° West 424 488 35,000  Level FlightAware Transoceanic
Wed 10:56:00 AM 53.0661 -38.0423 268° West 424 488 35,000  Level FlightAware Transoceanic
Wed 10:57:00 AM 53.0610 -38.2383 267° West 424 488 35,000  Level FlightAware Transoceanic
Wed 10:58:00 AM 53.0555 -38.4343 267° West 424 488 35,000  Level FlightAware Transoceanic
Wed 10:59:00 AM 53.0497 -38.6302 267° West 424 488 35,000  Level FlightAware Transoceanic
Wed 11:00:00 AM 53.0435 -38.8261 267° West 424 488 35,000  Level FlightAware Transoceanic
Wed 11:01:00 AM 53.0371 -39.0219 267° West 424 488 35,000  Level FlightAware Transoceanic
Wed 11:02:00 AM 53.0303 -39.2177 267° West 424 488 35,000  Level FlightAware Transoceanic
Wed 11:03:00 AM 53.0232 -39.4133 266° West 424 488 35,000  Level FlightAware Transoceanic
Wed 11:04:00 AM 53.0158 -39.6090 266° West 424 488 35,000  Level FlightAware Transoceanic
Wed 11:05:00 AM 53.0081 -39.8045 266° West 424 488 35,000  Level FlightAware Transoceanic
Wed 11:06:00 AM 53.0000 -39.9988 266° West  Level FlightAware Approximate
Wed 11:07:00 AM 52.9918 -40.1930 266° West  Level FlightAware Approximate
Wed 11:07:17 AM 53.0000 -40.0000 256° West 431 496 35,000  Level ETMS Enhanced Traffic Management System
Wed 11:08:00 AM 52.9718 -40.1865 256° West  Level FlightAware Approximate
Wed 11:09:00 AM 52.9430 -40.3755 256° West  Level FlightAware Approximate
Wed 11:10:00 AM 52.9138 -40.5642 256° West  Level FlightAware Approximate
Wed 11:11:00 AM 52.8843 -40.7526 256° West  Level FlightAware Approximate
Wed 11:12:00 AM 52.8546 -40.9408 255° West  Level FlightAware Approximate
Wed 11:13:00 AM 52.7895 -41.3451 255° West 431 496 35,000  Level FlightAware Transoceanic
Wed 11:14:00 AM 52.7581 -41.5361 255° West 431 496 35,000  Level FlightAware Transoceanic
Wed 11:15:00 AM 52.7265 -41.7269 255° West 431 496 35,000  Level FlightAware Transoceanic
Wed 11:16:00 AM 52.6946 -41.9174 254° West 431 496 35,000  Level FlightAware Transoceanic
Wed 11:17:00 AM 52.6624 -42.1077 254° West 431 496 35,000  Level FlightAware Transoceanic
Wed 11:18:00 AM 52.6298 -42.2976 254° West 431 496 35,000  Level FlightAware Transoceanic
Wed 11:19:00 AM 52.5970 -42.4873 254° West 431 496 35,000  Level FlightAware Transoceanic
Wed 11:20:00 AM 52.5639 -42.6767 254° West 431 496 35,000  Level FlightAware Transoceanic
Wed 11:21:00 AM 52.5304 -42.8658 254° West 431 496 35,000  Level FlightAware Transoceanic
Wed 11:22:00 AM 52.4967 -43.0546 254° West 431 496 35,000  Level FlightAware Transoceanic
Wed 11:23:00 AM 52.4626 -43.2431 253° West 431 496 35,000  Level FlightAware Transoceanic
Wed 11:24:00 AM 52.4283 -43.4314 253° West 431 496 35,000  Level FlightAware Transoceanic
Wed 11:25:00 AM 52.3936 -43.6193 253° West 431 496 35,000  Level FlightAware Transoceanic
Wed 11:26:00 AM 52.3587 -43.8069 253° West 431 496 35,000  Level FlightAware Transoceanic
Wed 11:27:00 AM 52.3235 -43.9943 253° West 431 496 35,000  Level FlightAware Transoceanic
Wed 11:28:00 AM 52.2879 -44.1813 253° West 431 496 35,000  Level FlightAware Transoceanic
Wed 11:29:00 AM 52.2521 -44.3681 253° West 431 496 35,000  Level FlightAware Transoceanic
Wed 11:30:00 AM 52.2160 -44.5545 252° West 431 496 35,000  Level FlightAware Transoceanic
Wed 11:31:00 AM 52.1796 -44.7406 252° West 431 496 35,000  Level FlightAware Transoceanic
Wed 11:32:00 AM 52.1429 -44.9265 252° West 431 496 35,000  Level FlightAware Transoceanic
Wed 11:33:00 AM 52.1059 -45.1120 252° West 431 496 35,000  Level FlightAware Transoceanic
Wed 11:34:00 AM 52.0686 -45.2972 252° West 431 496 35,000  Level FlightAware Transoceanic
Wed 11:35:00 AM 52.0310 -45.4821 252° West 431 496 35,000  Level FlightAware Transoceanic
Wed 11:36:00 AM 51.9931 -45.6667 251° West 431 496 35,000  Level FlightAware Transoceanic
Wed 11:37:00 AM 51.9550 -45.8510 251° West 431 496 35,000  Level FlightAware Transoceanic
Wed 11:38:00 AM 51.9165 -46.0349 251° West 431 496 35,000  Level FlightAware Transoceanic
Wed 11:39:00 AM 51.8778 -46.2186 251° West 431 496 35,000  Level FlightAware Transoceanic
Wed 11:40:00 AM 51.8388 -46.4019 251° West 431 496 35,000  Level FlightAware Transoceanic
Wed 11:41:00 AM 51.7995 -46.5849 251° West 431 496 35,000  Level FlightAware Transoceanic
Wed 11:42:00 AM 51.7599 -46.7676 251° West 431 496 35,000  Level FlightAware Transoceanic
Wed 11:43:00 AM 51.7201 -46.9500 250° West 431 496 35,000  Level FlightAware Transoceanic
Wed 11:44:00 AM 51.6799 -47.1320 250° West 431 496 35,000  Level FlightAware Transoceanic
Wed 11:45:00 AM 51.6395 -47.3138 250° West 431 496 35,000  Level FlightAware Transoceanic
Wed 11:46:00 AM 51.5988 -47.4952 250° West 431 496 35,000  Level FlightAware Transoceanic
Wed 11:47:00 AM 51.5578 -47.6762 250° West 431 496 35,000  Level FlightAware Transoceanic
Wed 11:48:00 AM 51.5165 -47.8570 250° West 431 496 35,000  Level FlightAware Transoceanic
Wed 11:49:00 AM 51.4750 -48.0374 250° West 431 496 35,000  Level FlightAware Transoceanic
Wed 11:50:00 AM 51.4332 -48.2175 249° West 431 496 35,000  Level FlightAware Transoceanic
Wed 11:51:00 AM 51.3911 -48.3972 249° West 431 496 35,000  Level FlightAware Transoceanic
Wed 11:52:00 AM 51.3487 -48.5766 249° West 431 496 35,000  Level FlightAware Transoceanic
Wed 11:53:00 AM 51.3061 -48.7557 249° West 431 496 35,000  Level FlightAware Transoceanic
Wed 11:54:00 AM 51.2632 -48.9345 249° West 431 496 35,000  Level FlightAware Transoceanic
Wed 11:55:00 AM 51.2200 -49.1129 249° West 431 496 35,000  Level FlightAware Transoceanic
Wed 11:56:00 AM 51.1765 -49.2910 249° West 431 496 35,000  Level FlightAware Transoceanic
Wed 11:57:00 AM 51.1328 -49.4688 249° West 431 496 35,000  Level FlightAware Transoceanic
Wed 11:58:00 AM 51.0888 -49.6462 248° West 431 496 35,000  Level FlightAware Transoceanic
Wed 11:59:00 AM 51.0445 -49.8233 248° West 431 496 35,000  Level FlightAware Transoceanic
Wed 12:00:00 PM 51.0009 -49.9966 248° West  Level FlightAware Approximate
Wed 12:00:00 PM 51.0000 -50.0000 250° West 419 482 35,000  Level ETMS Enhanced Traffic Management System
Wed 12:01:00 PM 50.9572 -50.1697 248° West  Level FlightAware Approximate
Wed 12:02:00 PM 50.9509 -50.1437 250° West  Level FlightAware Approximate
Wed 12:02:52 PM 50.8500 -50.4833 249° West 430 495 35,000  Level Gander Center
Wed 12:03:00 PM 50.9111 -50.3190 250° West  Level FlightAware Approximate
Wed 12:03:52 PM 50.8167 -50.6667 254° West 430 495 35,000  Level Gander Center
Wed 12:04:00 PM 50.8716 -50.4914 250° West  Level FlightAware Approximate
Wed 12:04:52 PM 50.7667 -50.8333 245° Southwest 430 495 35,000  Level Gander Center
Wed 12:05:00 PM 50.8319 -50.6634 250° West  Level FlightAware Approximate
Wed 12:05:52 PM 50.7333 -51.0167 254° West 420 483 35,000  Level Gander Center
Wed 12:06:00 PM 50.7128 -51.2109 249° West 419 482 35,000  Level FlightAware Transoceanic
Wed 12:06:52 PM 50.7167 -51.1667 260° West 410 472 35,000  Level Gander Center
Wed 12:07:00 PM 50.6707 -51.3827 249° West 419 482 35,000  Level FlightAware Transoceanic
Wed 12:07:52 PM 50.7000 -51.3667 263° West 410 472 35,000  Level Gander Center
Wed 12:08:00 PM 50.6284 -51.5541 249° West 419 482 35,000  Level FlightAware Transoceanic
Wed 12:13:29 PM 50.5280 -52.3460 263° West 405 466 35,000  Level FlightAware ADS-B
Wed 12:14:09 PM 50.5120 -52.4430 255° West 405 466 35,000  Level FlightAware ADS-B
Wed 12:14:46 PM 50.4890 -52.5730 255° West 406 467 35,000 512 Level FlightAware ADS-B
Wed 12:15:31 PM 50.4670 -52.7020 255° West 411 473 35,700 1,125 Climbing FlightAware ADS-B
Wed 12:16:06 PM 50.4500 -52.8030 255° West 413 475 36,500 960 Climbing FlightAware ADS-B
Wed 12:16:46 PM 50.4300 -52.9190 255° West 423 487 36,900 640 Climbing FlightAware ADS-B
Wed 12:17:21 PM 50.4110 -53.0250 254° West 428 493 37,300 600 Climbing FlightAware ADS-B
Wed 12:17:56 PM 50.3940 -53.1270 255° West 429 494 37,600 507 Climbing FlightAware ADS-B
Wed 12:18:32 PM 50.3750 -53.2320 254° West 429 494 37,900 343 Climbing FlightAware ADS-B
Wed 12:19:06 PM 50.3560 -53.3380 254° West 429 494 38,000 87 Climbing FlightAware ADS-B
Wed 12:19:41 PM 50.3380 -53.4390 254° West 427 491 38,000  Level FlightAware ADS-B
Wed 12:20:17 PM 50.3200 -53.5460 255° West 425 489 38,000  Level FlightAware ADS-B
Wed 12:20:51 PM 50.3010 -53.6480 254° West 426 490 38,000  Level FlightAware ADS-B
Wed 12:21:26 PM 50.2820 -53.7550 255° West 430 495 38,000  Level FlightAware ADS-B
Wed 12:22:01 PM 50.2630 -53.8590 254° West 431 496 38,000  Level FlightAware ADS-B
Wed 12:22:36 PM 50.2450 -53.9610 255° West 433 498 38,000  Level FlightAware ADS-B
Wed 12:23:21 PM 50.2200 -54.0960 254° West 436 502 38,000  Level FlightAware ADS-B
Wed 12:23:51 PM 50.2030 -54.1910 254° West 438 504 38,000  Level FlightAware ADS-B
Wed 12:24:31 PM 50.1810 -54.3080 254° West 440 506 38,000  Level FlightAware ADS-B
Wed 12:25:06 PM 50.1610 -54.4170 254° West 441 507 38,000  Level FlightAware ADS-B
Wed 12:25:36 PM 50.1440 -54.5070 254° West 440 506 38,000  Level FlightAware ADS-B
Wed 12:26:11 PM 50.1240 -54.6130 254° West 440 506 38,000  Level FlightAware ADS-B
Wed 12:26:46 PM 50.1030 -54.7220 253° West 439 505 38,000  Level FlightAware ADS-B
Wed 12:27:26 PM 50.0810 -54.8430 254° West 440 506 38,000  Level FlightAware ADS-B
Wed 12:28:01 PM 50.0610 -54.9480 254° West 440 506 38,000  Level FlightAware ADS-B
Wed 12:28:36 PM 50.0410 -55.0490 253° West 440 506 38,000  Level FlightAware ADS-B
Wed 12:29:06 PM 50.0230 -55.1430 253° West 440 506 38,000  Level FlightAware ADS-B
Wed 12:29:41 PM 50.0030 -55.2470 253° West 443 510 38,000  Level FlightAware ADS-B
Wed 12:30:21 PM 49.9780 -55.3720 253° West 441 507 38,000  Level FlightAware ADS-B
Wed 12:30:51 PM 49.9610 -55.4600 253° West 439 505 38,000  Level FlightAware ADS-B
Wed 12:31:36 PM 49.9340 -55.5980 253° West 437 503 38,000  Level FlightAware ADS-B
Wed 12:32:06 PM 49.9160 -55.6880 253° West 435 501 38,000  Level FlightAware ADS-B
Wed 12:32:46 PM 49.8930 -55.8050 253° West 432 497 38,000  Level FlightAware ADS-B
Wed 12:33:16 PM 49.8760 -55.8910 253° West 430 495 38,000  Level FlightAware ADS-B
Wed 12:33:51 PM 49.8560 -55.9900 253° West 427 491 38,000  Level FlightAware ADS-B
Wed 12:34:31 PM 49.8320 -56.1090 253° West 424 488 38,000  Level FlightAware ADS-B
Wed 12:35:01 PM 49.8130 -56.1990 252° West 424 488 38,000  Level FlightAware ADS-B
Wed 12:35:41 PM 49.7920 -56.3030 253° West 425 489 38,000  Level FlightAware ADS-B
Wed 12:36:16 PM 49.7700 -56.4120 253° West 425 489 38,000  Level FlightAware ADS-B
Wed 12:37:16 PM 49.7380 -56.5670 252° West 425 489 38,000  Level FlightAware ADS-B
Wed 12:38:01 PM 49.7110 -56.6980 252° West 425 489 38,000  Level FlightAware ADS-B
Wed 12:38:38 PM 49.6910 -56.7880 251° West 425 489 38,000  Level FlightAware ADS-B
Wed 12:39:22 PM 49.6590 -56.9390 252° West 426 490 38,000  Level FlightAware ADS-B
Wed 12:40:16 PM 49.6240 -57.1080 252° West 426 490 38,000  Level FlightAware ADS-B
Wed 12:40:46 PM 49.6070 -57.1870 252° West 430 495 38,000  Level FlightAware ADS-B
Wed 12:41:31 PM 49.5790 -57.3150 251° West 430 495 38,000  Level FlightAware ADS-B
Wed 12:42:01 PM 49.5570 -57.4130 251° West 430 495 38,000  Level FlightAware ADS-B
Wed 12:42:43 PM 49.5340 -57.5160 251° West 430 495 38,000  Level FlightAware ADS-B
Wed 12:43:12 PM 49.5160 -57.6050 253° West 428 493 38,000  Level FlightAware ADS-B
Wed 12:43:51 PM 49.4880 -57.7290 251° West 426 490 38,000  Level FlightAware ADS-B
Wed 12:44:26 PM 49.4650 -57.8310 251° West 426 490 38,000  Level FlightAware ADS-B
Wed 12:45:01 PM 49.4430 -57.9320 252° West 428 493 38,000  Level FlightAware ADS-B
Wed 12:45:36 PM 49.4210 -58.0290 251° West 430 495 38,000  Level FlightAware ADS-B
Wed 12:46:11 PM 49.3980 -58.1290 251° West 431 496 38,000  Level FlightAware ADS-B
Wed 12:46:51 PM 49.3720 -58.2440 251° West 432 497 38,000  Level FlightAware ADS-B
Wed 12:47:26 PM 49.3490 -58.3440 251° West 431 496 38,000  Level FlightAware ADS-B
Wed 12:48:06 PM 49.3220 -58.4630 251° West 430 495 38,000  Level FlightAware ADS-B
Wed 12:48:31 PM 49.3080 -58.5220 250° West 429 494 38,000  Level FlightAware ADS-B
Wed 12:49:11 PM 49.2790 -58.6490 251° West 430 495 38,000  Level FlightAware ADS-B
Wed 12:49:36 PM 49.2640 -58.7130 250° West 429 494 38,000  Level FlightAware ADS-B
Wed 12:50:24 PM 49.2350 -58.8370 250° West 429 494 38,000  Level FlightAware ADS-B
Wed 12:51:01 PM 49.2050 -58.9610 250° West 428 493 38,000  Level FlightAware ADS-B
Wed 12:51:36 PM 49.1820 -59.0570 250° West 428 493 38,000  Level FlightAware ADS-B
Wed 12:52:16 PM 49.1590 -59.1540 250° West 428 493 38,000  Level FlightAware ADS-B
Wed 12:52:46 PM 49.1330 -59.2610 250° West 429 494 38,000  Level FlightAware ADS-B
Wed 12:53:31 PM 49.1030 -59.3880 250° West 429 494 38,000  Level FlightAware ADS-B
Wed 12:54:10 PM 49.0790 -59.4810 249° West 429 494 38,000  Level FlightAware ADS-B
Wed 12:54:56 PM 49.0430 -59.6290 250° West 430 495 38,000  Level FlightAware ADS-B
Wed 12:55:31 PM 49.0210 -59.7190 250° West 430 495 38,000  Level FlightAware ADS-B
Wed 12:56:01 PM 48.9980 -59.8120 249° West 430 495 38,000  Level FlightAware ADS-B
Wed 12:56:52 PM 48.9660 -59.9370 249° West 429 494 38,000  Level FlightAware ADS-B
Wed 12:57:28 PM 48.9450 -60.0230 250° West 429 494 38,000  Level FlightAware ADS-B
Wed 12:58:24 PM 48.9000 -60.1980 249° West 429 494 38,000  Level FlightAware ADS-B
Wed 12:59:00 PM 48.8770 -60.2830 248° West 429 494 38,000  Level FlightAware ADS-B
Wed 12:59:36 PM 48.8540 -60.3690 248° West 429 494 38,000  Level FlightAware ADS-B
Wed 01:00:12 PM 48.8310 -60.4550 248° West 429 494 38,000  Level FlightAware ADS-B
Wed 01:00:50 PM 48.8070 -60.5450 248° West 429 494 38,000  Level FlightAware ADS-B
Wed 01:01:27 PM 48.7840 -60.6330 248° West 429 494 38,000  Level FlightAware ADS-B
Wed 01:02:04 PM 48.7610 -60.7200 248° West 429 494 38,000  Level FlightAware ADS-B
Wed 01:02:40 PM 48.7380 -60.8060 248° West 429 494 38,000  Level FlightAware ADS-B
Wed 01:03:16 PM 48.7150 -60.8910 248° West 429 494 38,000  Level FlightAware ADS-B
Wed 01:03:52 PM 48.6920 -60.9770 248° West 429 494 38,000  Level FlightAware ADS-B
Wed 01:04:30 PM 48.6680 -61.0670 248° West 429 494 38,000  Level FlightAware ADS-B
Wed 01:05:06 PM 48.6460 -61.1520 249° West 429 494 38,000  Level FlightAware ADS-B
Wed 01:05:42 PM 48.6230 -61.2370 248° West 429 494 38,000  Level FlightAware ADS-B
Wed 01:06:19 PM 48.5990 -61.3250 248° West 429 494 38,000  Level FlightAware ADS-B
Wed 01:06:55 PM 48.5770 -61.4100 249° West 429 494 38,000  Level FlightAware ADS-B
Wed 01:07:31 PM 48.5540 -61.4950 248° West 429 494 38,000  Level FlightAware ADS-B
Wed 01:08:12 PM 48.4500 -61.7667 248° West 430 495 38,000  Level Moncton Center
Wed 01:09:12 PM 48.4167 -61.9500 255° West 430 495 38,000 200 Level Moncton Center
Wed 01:10:12 PM 48.3667 -62.1000 243° Southwest 440 506 38,400 450 Climbing Moncton Center
Wed 01:11:12 PM 48.3167 -62.2833 248° West 440 506 38,900 360 Climbing Moncton Center
Wed 01:11:52 PM 48.2833 -62.4167 249° West 430 495 39,000 60 Climbing Gander Center
Wed 01:12:52 PM 48.2333 -62.5667 243° Southwest 430 495 39,000  Level Gander Center
Wed 01:13:52 PM 48.1833 -62.7333 246° West 430 495 39,000  Level Gander Center
Wed 01:14:52 PM 48.1333 -62.9167 248° West 430 495 39,000  Level Gander Center
Wed 01:15:52 PM 48.1000 -63.0667 252° West 430 495 39,000  Level Gander Center
Wed 01:16:52 PM 48.0500 -63.2333 246° West 420 483 39,000  Level Gander Center
Wed 01:17:52 PM 48.0167 -63.3833 252° West 430 495 39,000  Level Gander Center
Wed 01:18:52 PM 47.9500 -63.5500 239° Southwest 430 495 39,000  Level Gander Center
Wed 01:19:52 PM 47.9000 -63.7000 244° Southwest 430 495 39,000  Level Gander Center
Wed 01:20:52 PM 47.8667 -63.8667 253° West 430 495 39,000  Level Gander Center
Wed 01:21:52 PM 47.8167 -64.0167 244° Southwest 430 495 39,000  Level Gander Center
Wed 01:22:52 PM 47.7667 -64.1833 246° West 430 495 39,000  Level Gander Center
Wed 01:23:52 PM 47.7167 -64.3667 248° West 430 495 39,000  Level Gander Center
Wed 01:24:52 PM 47.6667 -64.5333 246° West 420 483 39,000  Level Gander Center
Wed 01:25:52 PM 47.6167 -64.6833 244° Southwest 430 495 39,000  Level Gander Center
Wed 01:26:52 PM 47.5667 -64.8500 246° West 430 495 39,000  Level Gander Center
Wed 01:27:52 PM 47.5167 -65.0167 246° West 430 495 39,000  Level Gander Center
Wed 01:28:52 PM 47.4667 -65.1667 244° Southwest 430 495 39,000  Level Gander Center
Wed 01:29:52 PM 47.4167 -65.3333 246° West 440 506 39,000  Level Gander Center
Wed 01:30:52 PM 47.3667 -65.4833 244° Southwest 420 483 39,000  Level Gander Center
Wed 01:31:52 PM 47.3167 -65.6500 246° West 450 518 39,000  Level Gander Center
Wed 01:32:52 PM 47.2667 -65.8167 246° West 430 495 39,000  Level Gander Center
Wed 01:33:52 PM 47.2167 -65.9833 246° West 430 495 39,000  Level Gander Center
Wed 01:34:52 PM 47.1500 -66.1167 234° Southwest 430 495 39,000  Level Gander Center
Wed 01:35:52 PM 47.1167 -66.2833 254° West 440 506 39,000  Level Gander Center
Wed 01:36:25 PM 47.0833 -66.3333 226° Southwest 430 495 39,000  Level Montreal Center
Wed 01:37:12 PM 47.0500 -66.5167 255° West 440 506 39,000  Level Moncton Center
Wed 01:38:12 PM 46.9833 -66.6833 240° Southwest 430 495 39,000  Level Moncton Center
Wed 01:39:12 PM 46.9333 -66.8167 241° Southwest 440 506 39,000  Level Moncton Center
Wed 01:44:15 PM 46.7220 -67.6530 241° Southwest 439 505 39,000  Level FlightAware ADS-B
Wed 01:44:50 PM 46.7000 -67.7470 251° West 439 505 39,000  Level FlightAware ADS-B
Wed 01:45:30 PM 46.7000 -67.7470 251° West 440 506 39,000  Level FlightAware ADS-B
Wed 01:46:10 PM 46.6510 -67.9550 251° West 441 507 39,000  Level FlightAware ADS-B
Wed 01:46:45 PM 46.6240 -68.0720 251° West 439 505 39,000  Level FlightAware ADS-B
Wed 01:47:21 PM 46.6000 -68.1720 251° West 440 506 39,000  Level FlightAware ADS-B
Wed 01:48:01 PM 46.5740 -68.2830 251° West 440 506 39,000  Level FlightAware ADS-B
Wed 01:48:35 PM 46.5530 -68.3710 251° West 441 507 39,000  Level FlightAware ADS-B
Wed 01:49:10 PM 46.5300 -68.4700 251° West 442 509 39,000  Level FlightAware ADS-B
Wed 01:49:46 PM 46.5030 -68.5840 251° West 443 510 39,000  Level FlightAware ADS-B
Wed 01:50:16 PM 46.4820 -68.6680 250° West 443 510 39,000  Level FlightAware ADS-B
Wed 01:50:56 PM 46.4560 -68.7750 251° West 445 512 39,000  Level FlightAware ADS-B
Wed 01:51:31 PM 46.4320 -68.8770 251° West 445 512 39,000  Level FlightAware ADS-B
Wed 01:52:07 PM 46.4080 -68.9750 250° West 445 512 39,000  Level FlightAware ADS-B
Wed 01:52:41 PM 46.3840 -69.0730 250° West 445 512 39,000  Level FlightAware ADS-B
Wed 01:53:16 PM 46.3600 -69.1720 251° West 445 512 39,000 429 Level FlightAware ADS-B
Wed 01:53:51 PM 46.3360 -69.2690 250° West 448 516 39,500 857 Climbing FlightAware ADS-B
Wed 01:54:26 PM 46.3120 -69.3670 251° West 447 514 40,000 429 Climbing FlightAware ADS-B
Wed 01:55:01 PM 46.2880 -69.4640 250° West 443 510 40,000  Level FlightAware ADS-B
Wed 01:55:36 PM 46.2640 -69.5610 250° West 441 507 40,000  Level FlightAware ADS-B
Wed 01:56:14 PM 46.2370 -69.6670 250° West 444 511 40,000  Level FlightAware ADS-B
Wed 01:56:46 PM 46.2150 -69.7560 250° West 445 512 40,000  Level FlightAware ADS-B
Wed 01:57:21 PM 46.1910 -69.8520 250° West 446 513 40,000  Level FlightAware ADS-B
Wed 01:57:56 PM 46.1660 -69.9500 250° West 447 514 40,000  Level FlightAware ADS-B
Wed 01:58:31 PM 46.1410 -70.0480 250° West 447 514 40,000  Level FlightAware ADS-B
Wed 01:59:09 PM 46.1150 -70.1540 251° West 449 517 40,000  Level FlightAware ADS-B
Wed 01:59:41 PM 46.1030 -70.2470 259° West 447 514 40,000  Level FlightAware ADS-B
Wed 02:00:16 PM 46.0910 -70.3490 260° West 446 513 40,000  Level FlightAware ADS-B
Wed 02:00:54 PM 46.0760 -70.4600 259° West 446 513 40,000  Level FlightAware ADS-B
Wed 02:01:26 PM 46.0630 -70.5530 259° West 446 513 40,000  Level FlightAware ADS-B
Wed 02:02:01 PM 46.0490 -70.6520 259° West 446 513 40,000 -225 Level FlightAware ADS-B
Wed 02:02:46 PM 46.0290 -70.7840 258° West 443 510 39,700 -880 Descending FlightAware ADS-B
Wed 02:03:16 PM 46.0170 -70.8700 259° West 448 516 38,900 -1,286 Descending FlightAware ADS-B
Wed 02:03:56 PM 46.0000 -70.9870 258° West 446 513 38,200 -960 Descending FlightAware ADS-B
Wed 02:04:31 PM 45.9870 -71.0860 259° West 440 506 37,700 -1,015 Descending FlightAware ADS-B
Wed 02:05:01 PM 45.9750 -71.1720 259° West 437 503 37,100 -1,826 Descending FlightAware ADS-B
Wed 02:05:40 PM 45.9600 -71.2820 259° West 435 501 35,600 -2,400 Descending FlightAware ADS-B
Wed 02:06:11 PM 45.9470 -71.3700 258° West 434 499 34,300 -2,535 Descending FlightAware ADS-B
Wed 02:06:51 PM 45.9310 -71.4810 258° West 432 497 32,600 -2,571 Descending FlightAware ADS-B
Wed 02:07:21 PM 45.9190 -71.5660 259° West 430 495 31,300 -2,400 Descending FlightAware ADS-B
Wed 02:08:01 PM 45.9030 -71.6770 258° West 424 488 29,800 -2,240 Descending FlightAware ADS-B
Wed 02:08:36 PM 45.8890 -71.7700 258° West 416 479 28,500 -2,174 Descending FlightAware ADS-B
Wed 02:09:10 PM 45.8760 -71.8600 258° West 410 472 27,300 -2,174 Descending FlightAware ADS-B
Wed 02:09:45 PM 45.8620 -71.9520 258° West 403 464 26,000 -2,197 Descending FlightAware ADS-B
Wed 02:10:21 PM 45.8480 -72.0460 258° West 396 456 24,700 -2,091 Descending FlightAware ADS-B
Wed 02:10:51 PM 45.8370 -72.1220 258° West 390 449 23,700 -2,087 Descending FlightAware ADS-B
Wed 02:11:30 PM 45.8230 -72.2180 258° West 383 441 22,300 -2,080 Descending FlightAware ADS-B
Wed 02:12:06 PM 45.8090 -72.3080 257° West 378 435 21,100 -2,066 Descending FlightAware ADS-B
Wed 02:12:31 PM 45.7990 -72.3690 257° West 375 432 20,200 -2,031 Descending FlightAware ADS-B
Wed 02:13:11 PM 45.7870 -72.4640 260° West 367 422 18,900 -1,913 Descending FlightAware ADS-B
Wed 02:13:40 PM 45.7810 -72.5270 262° West 364 419 18,000 -2,160 Descending FlightAware ADS-B
Wed 02:14:26 PM 45.7690 -72.6430 262° West 359 413 16,200 -2,250 Descending FlightAware ADS-B
Wed 02:15:00 PM 45.7610 -72.7240 262° West 353 406 15,000 -2,057 Descending FlightAware ADS-B
Wed 02:15:36 PM 45.7530 -72.8060 262° West 348 400 13,800 -2,000 Descending FlightAware ADS-B
Wed 02:16:12 PM 45.7450 -72.8860 262° West 341 392 12,600 -1,971 Descending FlightAware ADS-B
Wed 02:16:46 PM 45.7370 -72.9620 261° West 336 387 11,500 -1,886 Descending FlightAware ADS-B
Wed 02:17:22 PM 45.7290 -73.0400 262° West 329 379 10,400 -1,235 Descending FlightAware ADS-B
Wed 02:17:54 PM 45.7220 -73.1070 262° West 304 350 10,100 -577 Descending FlightAware ADS-B
Wed 02:18:14 PM 45.7180 -73.1450 261° West 289 333 9,900 -391 Descending FlightAware ADS-B
Wed 02:18:40 PM 45.7120 -73.1920 260° West 264 304 9,800 -652 Descending FlightAware ADS-B
Wed 02:19:00 PM 45.7070 -73.2250 258° West 259 298 9,400 -1,231 Descending FlightAware ADS-B
Wed 02:19:19 PM 45.7020 -73.2560 257° West 261 300 9,000 -1,463 Descending FlightAware ADS-B
Wed 02:19:41 PM 45.6950 -73.2940 255° West 263 303 8,400 -1,571 Descending FlightAware ADS-B
Wed 02:20:01 PM 45.6890 -73.3280 256° West 262 302 7,900 -1,421 Descending FlightAware ADS-B
Wed 02:20:19 PM 45.6840 -73.3570 256° West 260 299 7,500 -1,364 Descending FlightAware ADS-B
Wed 02:20:45 PM 45.6760 -73.4010 255° West 258 297 6,900 -1,435 Descending FlightAware ADS-B
Wed 02:21:05 PM 45.6710 -73.4350 258° West 257 296 6,400 -1,350 Descending FlightAware ADS-B
Wed 02:21:25 PM 45.6650 -73.4670 255° West 249 287 6,000 -1,050 Descending FlightAware ADS-B
Wed 02:21:45 PM 45.6600 -73.4980 257° West 230 265 5,700 -1,227 Descending FlightAware ADS-B
Wed 02:22:09 PM 45.6530 -73.5310 253° West 217 250 5,100 -1,500 Descending FlightAware ADS-B
Wed 02:22:29 PM 45.6430 -73.5550 239° Southwest 213 245 4,600 -1,500 Descending FlightAware ADS-B
Wed 02:22:41 PM 45.6370 -73.5700 240° Southwest 212 244 4,300 -1,688 Descending FlightAware ADS-B
Wed 02:23:01 PM 45.6260 -73.5930 236° Southwest 213 245 3,700 -1,500 Descending FlightAware ADS-B
Wed 02:23:17 PM 45.6180 -73.6110 238° Southwest 212 244 3,400 -947 Descending FlightAware ADS-B
Wed 02:23:39 PM 45.6040 -73.6360 231° Southwest 202 232 3,100 -714 Descending FlightAware ADS-B
Wed 02:23:59 PM 45.5910 -73.6550 226° Southwest 192 221 2,900 -750 Descending FlightAware ADS-B
Wed 02:24:19 PM 45.5780 -73.6710 221° Southwest 189 217 2,600 -1,000 Descending FlightAware ADS-B
Wed 02:24:35 PM 45.5680 -73.6840 222° Southwest 186 214 2,300 -1,297 Descending FlightAware ADS-B
Wed 02:24:56 PM 45.5550 -73.7000 221° Southwest 183 211 1,800 -1,200 Descending FlightAware ADS-B
Wed 02:25:15 PM 45.5420 -73.7160 221° Southwest 170 196 1,500 -837 Descending FlightAware ADS-B
Wed 02:25:39 PM 45.5300 -73.7330 225° Southwest 152 175 1,200 -818 Descending FlightAware ADS-B
Wed 02:25:59 PM 45.5200 -73.7460 222° Southwest 140 161 900 -833 Descending FlightAware ADS-B
Wed 02:26:15 PM 45.5130 -73.7560 225° Southwest 132 152 700 -750 Descending FlightAware ADS-B
Wed 02:26:31 PM 45.5060 -73.7650 222° Southwest 133 153 500 -667 Descending FlightAware ADS-B
Wed 02:26:51 PM 45.4970 -73.7760 221° Southwest 132 152 300 -600 Descending FlightAware ADS-B
Wed 02:27:17 PM 45.4850 -73.7910 221° Southwest 136 157 -692 Descending FlightAware ADS-B
Wed 02:27:27 PM 45.4800 -73.7960 215° Southwest 115 132  Level FlightAware ADS-B

Login

Don't have an account? Register now (free) for customized features, flight alerts, and more!